Ji'An, China
Current Conditions -  °F | °C
As of 7:00 AM on Thursday 27 Nov 2014 (Local Time) from ZGHA Reporting Station
Haze Haze  
Wind Chill: 55°   Ceiling: Unl
Heat Index: 55°   Visibility: 1.8mi
Dew Point: 52°   Wind: 2mph
Humidity: 88%   Direction: NA
Pressure: 29.94"   Gusts: NA
Location:  27.12°N, 114.97°E
Report Text: ZGHA 262300Z VRB01MPS 3000 BR SCT023 13/11 Q1014 NOSIG
Loading
Personal Weather Stations






























Interactive Weather Map New forecast layout! Learn more

10-Day Weather Forecast

Advertisements
Track Severe Weather on mobile